sensor_id;sensor_type;location;lat;lon;timestamp;temperature;humidity
19803;DHT22;66074;50.764;6.090;2023-08-31T00:02:11;15.20;95.20
19803;DHT22;66074;50.764;6.090;2023-08-31T00:04:36;15.20;95.30
19803;DHT22;66074;50.764;6.090;2023-08-31T00:07:02;15.20;95.20
19803;DHT22;66074;50.764;6.090;2023-08-31T00:09:28;15.20;95.20
19803;DHT22;66074;50.764;6.090;2023-08-31T00:11:54;15.20;95.30
19803;DHT22;66074;50.764;6.090;2023-08-31T00:14:22;15.10;95.40
19803;DHT22;66074;50.764;6.090;2023-08-31T00:16:50;15.10;95.50
19803;DHT22;66074;50.764;6.090;2023-08-31T00:19:16;15.10;95.50
19803;DHT22;66074;50.764;6.090;2023-08-31T00:21:42;15.10;95.60
19803;DHT22;66074;50.764;6.090;2023-08-31T00:24:08;15.00;95.50
19803;DHT22;66074;50.764;6.090;2023-08-31T00:26:36;15.00;95.50
19803;DHT22;66074;50.764;6.090;2023-08-31T00:29:09;15.00;95.80
19803;DHT22;66074;50.764;6.090;2023-08-31T00:31:36;15.00;95.40
19803;DHT22;66074;50.764;6.090;2023-08-31T00:34:02;14.90;95.40
19803;DHT22;66074;50.764;6.090;2023-08-31T00:36:32;14.90;95.40
19803;DHT22;66074;50.764;6.090;2023-08-31T00:39:02;14.80;95.30
19803;DHT22;66074;50.764;6.090;2023-08-31T00:41:28;14.80;95.60
19803;DHT22;66074;50.764;6.090;2023-08-31T00:43:53;14.70;95.40
19803;DHT22;66074;50.764;6.090;2023-08-31T00:46:19;14.70;95.60
19803;DHT22;66074;50.764;6.090;2023-08-31T00:48:45;14.70;95.60
19803;DHT22;66074;50.764;6.090;2023-08-31T00:51:11;14.70;95.50
19803;DHT22;66074;50.764;6.090;2023-08-31T00:53:36;14.60;95.40
19803;DHT22;66074;50.764;6.090;2023-08-31T00:56:02;14.70;95.70
19803;DHT22;66074;50.764;6.090;2023-08-31T00:58:29;14.60;95.60
19803;DHT22;66074;50.764;6.090;2023-08-31T01:01:11;14.50;95.70
19803;DHT22;66074;50.764;6.090;2023-08-31T01:06:48;14.50;95.80
19803;DHT22;66074;50.764;6.090;2023-08-31T01:12:02;14.50;95.90
19803;DHT22;66074;50.764;6.090;2023-08-31T01:14:36;14.50;96.00
19803;DHT22;66074;50.764;6.090;2023-08-31T01:17:05;14.50;96.00
19803;DHT22;66074;50.764;6.090;2023-08-31T01:19:48;14.50;96.40
19803;DHT22;66074;50.764;6.090;2023-08-31T01:22:29;14.40;96.00
19803;DHT22;66074;50.764;6.090;2023-08-31T01:24:56;14.40;96.00
19803;DHT22;66074;50.764;6.090;2023-08-31T01:27:23;14.40;96.20
19803;DHT22;66074;50.764;6.090;2023-08-31T01:29:49;14.40;96.40
19803;DHT22;66074;50.764;6.090;2023-08-31T01:32:14;14.30;96.10
19803;DHT22;66074;50.764;6.090;2023-08-31T01:34:40;14.30;96.10
19803;DHT22;66074;50.764;6.090;2023-08-31T01:37:17;14.30;96.40
19803;DHT22;66074;50.764;6.090;2023-08-31T01:39:56;14.30;96.40
19803;DHT22;66074;50.764;6.090;2023-08-31T01:42:26;14.30;96.30
19803;DHT22;66074;50.764;6.090;2023-08-31T01:44:55;14.30;96.50
19803;DHT22;66074;50.764;6.090;2023-08-31T01:47:21;14.30;96.40
19803;DHT22;66074;50.764;6.090;2023-08-31T01:49:47;14.20;96.50
19803;DHT22;66074;50.764;6.090;2023-08-31T01:52:12;14.20;96.50
19803;DHT22;66074;50.764;6.090;2023-08-31T01:54:38;14.20;96.40
19803;DHT22;66074;50.764;6.090;2023-08-31T01:57:04;14.20;96.40
19803;DHT22;66074;50.764;6.090;2023-08-31T01:59:31;14.20;96.30
19803;DHT22;66074;50.764;6.090;2023-08-31T02:01:57;14.10;96.40
19803;DHT22;66074;50.764;6.090;2023-08-31T02:04:23;14.20;96.50
19803;DHT22;66074;50.764;6.090;2023-08-31T02:06:49;14.10;96.70
19803;DHT22;66074;50.764;6.090;2023-08-31T02:09:14;14.10;96.80
19803;DHT22;66074;50.764;6.090;2023-08-31T02:11:40;14.10;96.60
19803;DHT22;66074;50.764;6.090;2023-08-31T02:14:06;14.10;96.70
19803;DHT22;66074;50.764;6.090;2023-08-31T02:16:33;14.10;96.90
19803;DHT22;66074;50.764;6.090;2023-08-31T02:18:59;14.10;96.80
19803;DHT22;66074;50.764;6.090;2023-08-31T02:21:25;14.10;96.80
19803;DHT22;66074;50.764;6.090;2023-08-31T02:23:50;14.10;96.90
19803;DHT22;66074;50.764;6.090;2023-08-31T02:26:16;14.10;96.80
19803;DHT22;66074;50.764;6.090;2023-08-31T02:28:42;14.10;97.10
19803;DHT22;66074;50.764;6.090;2023-08-31T02:31:09;14.10;96.90
19803;DHT22;66074;50.764;6.090;2023-08-31T02:33:35;14.00;96.90
19803;DHT22;66074;50.764;6.090;2023-08-31T02:36:00;14.00;96.80
19803;DHT22;66074;50.764;6.090;2023-08-31T02:38:26;14.00;96.90
19803;DHT22;66074;50.764;6.090;2023-08-31T02:40:52;14.00;97.10
19803;DHT22;66074;50.764;6.090;2023-08-31T02:43:17;14.00;97.10
19803;DHT22;66074;50.764;6.090;2023-08-31T02:45:43;14.00;97.20
19803;DHT22;66074;50.764;6.090;2023-08-31T02:48:10;14.00;97.10
19803;DHT22;66074;50.764;6.090;2023-08-31T02:50:36;14.00;97.10
19803;DHT22;66074;50.764;6.090;2023-08-31T02:53:02;14.00;97.00
19803;DHT22;66074;50.764;6.090;2023-08-31T02:55:27;14.00;97.10
19803;DHT22;66074;50.764;6.090;2023-08-31T02:57:53;14.00;97.00
19803;DHT22;66074;50.764;6.090;2023-08-31T03:00:19;14.00;97.20
19803;DHT22;66074;50.764;6.090;2023-08-31T03:02:50;14.00;97.20
19803;DHT22;66074;50.764;6.090;2023-08-31T03:05:18;14.10;97.40
19803;DHT22;66074;50.764;6.090;2023-08-31T03:07:44;14.00;97.30
19803;DHT22;66074;50.764;6.090;2023-08-31T03:10:11;13.90;97.40
19803;DHT22;66074;50.764;6.090;2023-08-31T03:12:37;13.90;97.30
19803;DHT22;66074;50.764;6.090;2023-08-31T03:15:04;13.90;97.30
19803;DHT22;66074;50.764;6.090;2023-08-31T03:17:29;13.90;97.40
19803;DHT22;66074;50.764;6.090;2023-08-31T03:19:55;13.90;97.70
19803;DHT22;66074;50.764;6.090;2023-08-31T03:22:20;13.90;97.30
19803;DHT22;66074;50.764;6.090;2023-08-31T03:24:46;13.90;97.30
19803;DHT22;66074;50.764;6.090;2023-08-31T03:27:12;13.80;97.30
19803;DHT22;66074;50.764;6.090;2023-08-31T03:29:37;13.90;97.40
19803;DHT22;66074;50.764;6.090;2023-08-31T03:32:03;13.80;97.40
19803;DHT22;66074;50.764;6.090;2023-08-31T03:34:30;13.80;97.50
19803;DHT22;66074;50.764;6.090;2023-08-31T03:36:56;13.80;97.50
19803;DHT22;66074;50.764;6.090;2023-08-31T03:39:22;13.80;97.50
19803;DHT22;66074;50.764;6.090;2023-08-31T03:41:47;13.80;97.50
19803;DHT22;66074;50.764;6.090;2023-08-31T03:44:13;13.80;97.80
19803;DHT22;66074;50.764;6.090;2023-08-31T03:46:39;13.80;97.70
19803;DHT22;66074;50.764;6.090;2023-08-31T03:49:04;13.80;97.60
19803;DHT22;66074;50.764;6.090;2023-08-31T03:51:30;13.80;97.60
19803;DHT22;66074;50.764;6.090;2023-08-31T03:53:55;13.70;97.80
19803;DHT22;66074;50.764;6.090;2023-08-31T03:56:22;13.70;97.70
19803;DHT22;66074;50.764;6.090;2023-08-31T03:58:48;13.70;97.70
19803;DHT22;66074;50.764;6.090;2023-08-31T04:01:13;13.70;97.70
19803;DHT22;66074;50.764;6.090;2023-08-31T04:03:40;13.80;97.70
19803;DHT22;66074;50.764;6.090;2023-08-31T04:06:06;13.70;97.90
19803;DHT22;66074;50.764;6.090;2023-08-31T04:08:31;13.70;97.80
19803;DHT22;66074;50.764;6.090;2023-08-31T04:10:57;13.70;97.70
19803;DHT22;66074;50.764;6.090;2023-08-31T04:13:22;13.70;97.80
19803;DHT22;66074;50.764;6.090;2023-08-31T04:15:48;13.70;97.90
19803;DHT22;66074;50.764;6.090;2023-08-31T04:18:14;13.70;97.80
19803;DHT22;66074;50.764;6.090;2023-08-31T04:20:49;13.70;98.10
19803;DHT22;66074;50.764;6.090;2023-08-31T04:23:16;13.60;98.00
19803;DHT22;66074;50.764;6.090;2023-08-31T04:25:42;13.70;98.00
19803;DHT22;66074;50.764;6.090;2023-08-31T04:28:08;13.70;98.10
19803;DHT22;66074;50.764;6.090;2023-08-31T04:30:33;13.60;98.00
19803;DHT22;66074;50.764;6.090;2023-08-31T04:32:59;13.60;98.10
19803;DHT22;66074;50.764;6.090;2023-08-31T04:35:24;13.70;98.20
19803;DHT22;66074;50.764;6.090;2023-08-31T04:37:50;13.60;98.00
19803;DHT22;66074;50.764;6.090;2023-08-31T04:40:16;13.60;98.20
19803;DHT22;66074;50.764;6.090;2023-08-31T04:42:42;13.50;98.10
19803;DHT22;66074;50.764;6.090;2023-08-31T04:45:08;13.60;98.20
19803;DHT22;66074;50.764;6.090;2023-08-31T04:47:34;13.50;98.40
19803;DHT22;66074;50.764;6.090;2023-08-31T04:49:59;13.50;98.20
19803;DHT22;66074;50.764;6.090;2023-08-31T04:52:25;13.50;98.20
19803;DHT22;66074;50.764;6.090;2023-08-31T04:54:50;13.50;98.10
19803;DHT22;66074;50.764;6.090;2023-08-31T04:57:16;13.50;98.30
19803;DHT22;66074;50.764;6.090;2023-08-31T04:59:42;13.50;98.30
19803;DHT22;66074;50.764;6.090;2023-08-31T05:02:07;13.50;98.40
19803;DHT22;66074;50.764;6.090;2023-08-31T05:04:34;13.50;98.30
19803;DHT22;66074;50.764;6.090;2023-08-31T05:06:59;13.50;98.40
19803;DHT22;66074;50.764;6.090;2023-08-31T05:09:25;13.50;98.30
19803;DHT22;66074;50.764;6.090;2023-08-31T05:11:52;13.50;98.40
19803;DHT22;66074;50.764;6.090;2023-08-31T05:14:17;13.50;98.40
19803;DHT22;66074;50.764;6.090;2023-08-31T05:16:43;13.50;98.40
19803;DHT22;66074;50.764;6.090;2023-08-31T05:19:08;13.60;98.40
19803;DHT22;66074;50.764;6.090;2023-08-31T05:21:34;13.60;98.30
19803;DHT22;66074;50.764;6.090;2023-08-31T05:24:00;13.60;98.60
19803;DHT22;66074;50.764;6.090;2023-08-31T05:26:25;13.60;98.50
19803;DHT22;66074;50.764;6.090;2023-08-31T05:28:51;13.60;98.50
19803;DHT22;66074;50.764;6.090;2023-08-31T05:31:16;13.60;98.60
19803;DHT22;66074;50.764;6.090;2023-08-31T05:33:42;13.60;98.60
19803;DHT22;66074;50.764;6.090;2023-08-31T05:36:08;13.60;98.40
19803;DHT22;66074;50.764;6.090;2023-08-31T05:38:34;13.60;98.20
19803;DHT22;66074;50.764;6.090;2023-08-31T05:41:05;13.60;98.50
19803;DHT22;66074;50.764;6.090;2023-08-31T05:43:32;13.60;98.70
19803;DHT22;66074;50.764;6.090;2023-08-31T05:45:58;13.70;98.70
19803;DHT22;66074;50.764;6.090;2023-08-31T05:48:23;13.60;98.70
19803;DHT22;66074;50.764;6.090;2023-08-31T05:50:49;13.70;98.70
19803;DHT22;66074;50.764;6.090;2023-08-31T05:53:14;13.70;98.90
19803;DHT22;66074;50.764;6.090;2023-08-31T05:55:40;13.70;98.80
19803;DHT22;66074;50.764;6.090;2023-08-31T05:58:05;13.70;99.10
19803;DHT22;66074;50.764;6.090;2023-08-31T06:00:31;13.70;98.80
19803;DHT22;66074;50.764;6.090;2023-08-31T06:02:57;13.70;98.90
19803;DHT22;66074;50.764;6.090;2023-08-31T06:05:22;13.70;98.80
19803;DHT22;66074;50.764;6.090;2023-08-31T06:07:48;13.70;99.00
19803;DHT22;66074;50.764;6.090;2023-08-31T06:10:13;13.80;98.90
19803;DHT22;66074;50.764;6.090;2023-08-31T06:12:40;13.80;98.80
19803;DHT22;66074;50.764;6.090;2023-08-31T06:15:06;13.80;98.80
19803;DHT22;66074;50.764;6.090;2023-08-31T06:17:32;13.90;98.90
19803;DHT22;66074;50.764;6.090;2023-08-31T06:19:57;13.90;98.90
19803;DHT22;66074;50.764;6.090;2023-08-31T06:22:23;14.00;98.90
19803;DHT22;66074;50.764;6.090;2023-08-31T06:24:50;14.00;98.90
19803;DHT22;66074;50.764;6.090;2023-08-31T06:27:17;14.00;98.80
19803;DHT22;66074;50.764;6.090;2023-08-31T06:29:43;14.10;98.80
19803;DHT22;66074;50.764;6.090;2023-08-31T06:32:09;14.00;98.90
19803;DHT22;66074;50.764;6.090;2023-08-31T06:34:34;14.10;98.90
19803;DHT22;66074;50.764;6.090;2023-08-31T06:37:00;14.10;98.80
19803;DHT22;66074;50.764;6.090;2023-08-31T06:39:26;14.10;98.80
19803;DHT22;66074;50.764;6.090;2023-08-31T06:41:51;14.10;98.80
19803;DHT22;66074;50.764;6.090;2023-08-31T06:44:17;14.20;98.80
19803;DHT22;66074;50.764;6.090;2023-08-31T06:46:43;14.20;98.70
19803;DHT22;66074;50.764;6.090;2023-08-31T06:49:08;14.20;98.80
19803;DHT22;66074;50.764;6.090;2023-08-31T06:51:35;14.20;98.90
19803;DHT22;66074;50.764;6.090;2023-08-31T06:54:00;14.20;98.90
19803;DHT22;66074;50.764;6.090;2023-08-31T06:56:33;14.30;99.00
19803;DHT22;66074;50.764;6.090;2023-08-31T06:58:59;14.30;98.90
19803;DHT22;66074;50.764;6.090;2023-08-31T07:01:25;14.30;98.80
19803;DHT22;66074;50.764;6.090;2023-08-31T07:03:50;14.40;98.90
19803;DHT22;66074;50.764;6.090;2023-08-31T07:06:17;14.40;98.90
19803;DHT22;66074;50.764;6.090;2023-08-31T07:08:42;14.40;99.00
19803;DHT22;66074;50.764;6.090;2023-08-31T07:11:11;14.40;98.90
19803;DHT22;66074;50.764;6.090;2023-08-31T07:13:36;14.50;98.90
19803;DHT22;66074;50.764;6.090;2023-08-31T07:16:02;14.50;98.90
19803;DHT22;66074;50.764;6.090;2023-08-31T07:18:28;14.50;98.90
19803;DHT22;66074;50.764;6.090;2023-08-31T07:20:53;14.50;98.90
19803;DHT22;66074;50.764;6.090;2023-08-31T07:23:19;14.50;98.90
19803;DHT22;66074;50.764;6.090;2023-08-31T07:25:45;14.60;99.00
19803;DHT22;66074;50.764;6.090;2023-08-31T07:28:11;14.60;99.30
19803;DHT22;66074;50.764;6.090;2023-08-31T07:30:36;14.70;99.00
19803;DHT22;66074;50.764;6.090;2023-08-31T07:33:03;14.60;98.80
19803;DHT22;66074;50.764;6.090;2023-08-31T07:35:30;14.70;98.90
19803;DHT22;66074;50.764;6.090;2023-08-31T07:37:55;14.70;98.90
19803;DHT22;66074;50.764;6.090;2023-08-31T07:40:21;14.80;98.90
19803;DHT22;66074;50.764;6.090;2023-08-31T07:42:47;14.80;98.80
19803;DHT22;66074;50.764;6.090;2023-08-31T07:45:12;14.90;98.80
19803;DHT22;66074;50.764;6.090;2023-08-31T07:47:38;14.90;98.80
19803;DHT22;66074;50.764;6.090;2023-08-31T07:50:04;14.90;98.80
19803;DHT22;66074;50.764;6.090;2023-08-31T07:52:30;15.00;98.70
19803;DHT22;66074;50.764;6.090;2023-08-31T07:54:55;15.00;98.70
19803;DHT22;66074;50.764;6.090;2023-08-31T07:57:22;15.10;98.70
19803;DHT22;66074;50.764;6.090;2023-08-31T07:59:47;15.10;98.70
19803;DHT22;66074;50.764;6.090;2023-08-31T08:02:13;15.20;98.80
19803;DHT22;66074;50.764;6.090;2023-08-31T08:04:41;15.30;98.70
19803;DHT22;66074;50.764;6.090;2023-08-31T08:07:06;15.40;98.60
19803;DHT22;66074;50.764;6.090;2023-08-31T08:09:32;15.40;98.40
19803;DHT22;66074;50.764;6.090;2023-08-31T08:11:57;15.40;98.40
19803;DHT22;66074;50.764;6.090;2023-08-31T08:14:23;15.50;98.40
19803;DHT22;66074;50.764;6.090;2023-08-31T08:16:48;15.50;98.40
19803;DHT22;66074;50.764;6.090;2023-08-31T08:19:21;15.50;98.50
19803;DHT22;66074;50.764;6.090;2023-08-31T08:21:47;15.50;98.50
19803;DHT22;66074;50.764;6.090;2023-08-31T08:24:13;15.50;98.50
19803;DHT22;66074;50.764;6.090;2023-08-31T08:26:38;15.60;98.50
19803;DHT22;66074;50.764;6.090;2023-08-31T08:29:04;15.60;98.40
19803;DHT22;66074;50.764;6.090;2023-08-31T08:31:29;15.70;98.30
19803;DHT22;66074;50.764;6.090;2023-08-31T08:33:56;15.70;98.30
19803;DHT22;66074;50.764;6.090;2023-08-31T08:36:22;15.70;98.40
19803;DHT22;66074;50.764;6.090;2023-08-31T08:38:47;15.80;98.40
19803;DHT22;66074;50.764;6.090;2023-08-31T08:41:14;15.80;98.40
19803;DHT22;66074;50.764;6.090;2023-08-31T08:43:43;15.90;98.20
19803;DHT22;66074;50.764;6.090;2023-08-31T08:46:09;15.90;98.20
19803;DHT22;66074;50.764;6.090;2023-08-31T08:48:36;16.00;98.30
19803;DHT22;66074;50.764;6.090;2023-08-31T08:51:05;16.00;97.90
19803;DHT22;66074;50.764;6.090;2023-08-31T08:53:32;16.00;97.80
19803;DHT22;66074;50.764;6.090;2023-08-31T08:55:58;16.00;98.00
19803;DHT22;66074;50.764;6.090;2023-08-31T08:58:24;16.10;97.80
19803;DHT22;66074;50.764;6.090;2023-08-31T09:00:51;16.10;97.90
19803;DHT22;66074;50.764;6.090;2023-08-31T09:03:17;16.20;97.90
19803;DHT22;66074;50.764;6.090;2023-08-31T09:05:43;16.30;97.90
19803;DHT22;66074;50.764;6.090;2023-08-31T09:08:09;16.30;97.90
19803;DHT22;66074;50.764;6.090;2023-08-31T09:10:45;16.30;97.90
19803;DHT22;66074;50.764;6.090;2023-08-31T09:13:12;16.40;98.00
19803;DHT22;66074;50.764;6.090;2023-08-31T09:15:46;16.50;97.90
19803;DHT22;66074;50.764;6.090;2023-08-31T09:18:16;16.50;97.80
19803;DHT22;66074;50.764;6.090;2023-08-31T09:20:48;16.70;97.80
19803;DHT22;66074;50.764;6.090;2023-08-31T09:23:14;16.70;97.80
19803;DHT22;66074;50.764;6.090;2023-08-31T09:25:45;16.80;97.70
19803;DHT22;66074;50.764;6.090;2023-08-31T09:28:14;16.80;97.80
19803;DHT22;66074;50.764;6.090;2023-08-31T09:30:40;16.90;97.70
19803;DHT22;66074;50.764;6.090;2023-08-31T09:33:17;17.10;97.90
19803;DHT22;66074;50.764;6.090;2023-08-31T09:35:59;17.20;97.70
19803;DHT22;66074;50.764;6.090;2023-08-31T09:38:26;17.30;97.70
19803;DHT22;66074;50.764;6.090;2023-08-31T09:40:53;17.30;97.70
19803;DHT22;66074;50.764;6.090;2023-08-31T09:43:28;17.40;97.90
19803;DHT22;66074;50.764;6.090;2023-08-31T09:45:54;17.40;97.70
19803;DHT22;66074;50.764;6.090;2023-08-31T09:48:20;17.50;97.70
19803;DHT22;66074;50.764;6.090;2023-08-31T09:50:48;17.60;97.70
19803;DHT22;66074;50.764;6.090;2023-08-31T09:53:17;17.60;97.60
19803;DHT22;66074;50.764;6.090;2023-08-31T09:55:47;17.60;97.50
19803;DHT22;66074;50.764;6.090;2023-08-31T09:58:16;17.60;97.50
19803;DHT22;66074;50.764;6.090;2023-08-31T10:00:43;17.70;97.30
19803;DHT22;66074;50.764;6.090;2023-08-31T10:03:12;17.80;97.30
19803;DHT22;66074;50.764;6.090;2023-08-31T10:05:44;18.10;97.40
19803;DHT22;66074;50.764;6.090;2023-08-31T10:08:11;18.10;97.20
19803;DHT22;66074;50.764;6.090;2023-08-31T10:10:37;18.20;97.00
19803;DHT22;66074;50.764;6.090;2023-08-31T10:13:04;18.30;97.00
19803;DHT22;66074;50.764;6.090;2023-08-31T10:15:34;18.30;96.90
19803;DHT22;66074;50.764;6.090;2023-08-31T10:18:05;18.20;96.60
19803;DHT22;66074;50.764;6.090;2023-08-31T10:20:32;18.10;96.70
19803;DHT22;66074;50.764;6.090;2023-08-31T10:23:06;18.10;96.50
19803;DHT22;66074;50.764;6.090;2023-08-31T10:28:24;18.10;96.50
19803;DHT22;66074;50.764;6.090;2023-08-31T10:31:02;18.20;96.50
19803;DHT22;66074;50.764;6.090;2023-08-31T10:33:34;18.30;96.30
19803;DHT22;66074;50.764;6.090;2023-08-31T10:36:00;18.30;96.30
19803;DHT22;66074;50.764;6.090;2023-08-31T10:38:28;18.20;96.20
19803;DHT22;66074;50.764;6.090;2023-08-31T10:49:15;18.30;95.50
19803;DHT22;66074;50.764;6.090;2023-08-31T10:54:41;18.50;94.70
19803;DHT22;66074;50.764;6.090;2023-08-31T10:57:07;18.50;94.50
19803;DHT22;66074;50.764;6.090;2023-08-31T11:02:42;18.40;94.40
19803;DHT22;66074;50.764;6.090;2023-08-31T11:05:18;18.40;94.50
19803;DHT22;66074;50.764;6.090;2023-08-31T11:07:46;18.50;94.60
19803;DHT22;66074;50.764;6.090;2023-08-31T11:10:17;18.60;94.70
19803;DHT22;66074;50.764;6.090;2023-08-31T11:12:46;18.70;94.70
19803;DHT22;66074;50.764;6.090;2023-08-31T11:15:13;18.80;94.70
19803;DHT22;66074;50.764;6.090;2023-08-31T11:17:40;18.80;94.30
19803;DHT22;66074;50.764;6.090;2023-08-31T11:20:07;18.80;94.30
19803;DHT22;66074;50.764;6.090;2023-08-31T11:22:34;18.80;94.40
19803;DHT22;66074;50.764;6.090;2023-08-31T11:25:03;18.70;94.40
19803;DHT22;66074;50.764;6.090;2023-08-31T11:27:29;18.90;94.70
19803;DHT22;66074;50.764;6.090;2023-08-31T11:29:55;19.00;94.30
19803;DHT22;66074;50.764;6.090;2023-08-31T11:32:23;19.10;94.20
19803;DHT22;66074;50.764;6.090;2023-08-31T11:34:50;19.10;93.40
19803;DHT22;66074;50.764;6.090;2023-08-31T11:37:16;19.10;93.40
19803;DHT22;66074;50.764;6.090;2023-08-31T11:39:54;19.00;93.30
19803;DHT22;66074;50.764;6.090;2023-08-31T11:42:21;19.00;93.30
19803;DHT22;66074;50.764;6.090;2023-08-31T11:44:48;19.00;93.50
19803;DHT22;66074;50.764;6.090;2023-08-31T11:47:15;19.00;93.30
19803;DHT22;66074;50.764;6.090;2023-08-31T11:49:42;19.00;93.30
19803;DHT22;66074;50.764;6.090;2023-08-31T11:52:10;18.90;93.30
19803;DHT22;66074;50.764;6.090;2023-08-31T11:54:39;18.90;93.40
19803;DHT22;66074;50.764;6.090;2023-08-31T11:57:09;19.10;93.30
19803;DHT22;66074;50.764;6.090;2023-08-31T11:59:35;19.20;93.20
19803;DHT22;66074;50.764;6.090;2023-08-31T12:02:05;19.30;93.10
19803;DHT22;66074;50.764;6.090;2023-08-31T12:04:31;19.40;93.40
19803;DHT22;66074;50.764;6.090;2023-08-31T12:07:03;19.60;93.40
19803;DHT22;66074;50.764;6.090;2023-08-31T12:09:30;19.70;92.90
19803;DHT22;66074;50.764;6.090;2023-08-31T12:11:56;19.70;92.90
19803;DHT22;66074;50.764;6.090;2023-08-31T12:14:23;19.70;92.60
19803;DHT22;66074;50.764;6.090;2023-08-31T12:16:49;19.70;92.40
19803;DHT22;66074;50.764;6.090;2023-08-31T12:19:18;19.70;92.40
19803;DHT22;66074;50.764;6.090;2023-08-31T12:21:45;19.60;92.20
19803;DHT22;66074;50.764;6.090;2023-08-31T12:24:11;19.50;92.00
19803;DHT22;66074;50.764;6.090;2023-08-31T12:26:37;19.40;91.80
19803;DHT22;66074;50.764;6.090;2023-08-31T12:29:03;19.30;92.10
19803;DHT22;66074;50.764;6.090;2023-08-31T12:31:32;19.20;92.40
19803;DHT22;66074;50.764;6.090;2023-08-31T12:33:59;19.20;92.60
19803;DHT22;66074;50.764;6.090;2023-08-31T12:36:25;19.30;92.80
19803;DHT22;66074;50.764;6.090;2023-08-31T12:38:51;19.40;92.90
19803;DHT22;66074;50.764;6.090;2023-08-31T12:41:17;19.60;92.90
19803;DHT22;66074;50.764;6.090;2023-08-31T12:43:43;19.80;92.90
19803;DHT22;66074;50.764;6.090;2023-08-31T12:46:08;20.00;92.80
19803;DHT22;66074;50.764;6.090;2023-08-31T12:48:35;20.20;92.60
19803;DHT22;66074;50.764;6.090;2023-08-31T12:51:00;20.20;92.60
19803;DHT22;66074;50.764;6.090;2023-08-31T12:53:26;20.20;92.40
19803;DHT22;66074;50.764;6.090;2023-08-31T12:55:53;20.30;91.90
19803;DHT22;66074;50.764;6.090;2023-08-31T12:58:19;20.30;92.00
19803;DHT22;66074;50.764;6.090;2023-08-31T13:00:46;20.30;91.30
19803;DHT22;66074;50.764;6.090;2023-08-31T13:03:13;20.20;90.50
19803;DHT22;66074;50.764;6.090;2023-08-31T13:05:39;20.30;91.40
19803;DHT22;66074;50.764;6.090;2023-08-31T13:08:06;20.70;91.10
19803;DHT22;66074;50.764;6.090;2023-08-31T13:10:32;21.10;90.90
19803;DHT22;66074;50.764;6.090;2023-08-31T13:12:58;22.10;90.80
19803;DHT22;66074;50.764;6.090;2023-08-31T13:15:23;23.00;91.10
19803;DHT22;66074;50.764;6.090;2023-08-31T13:17:49;23.80;90.80
19803;DHT22;66074;50.764;6.090;2023-08-31T13:20:15;24.00;91.00
19803;DHT22;66074;50.764;6.090;2023-08-31T13:22:40;23.60;89.80
19803;DHT22;66074;50.764;6.090;2023-08-31T13:25:06;23.10;89.30
19803;DHT22;66074;50.764;6.090;2023-08-31T13:27:32;22.70;89.80
19803;DHT22;66074;50.764;6.090;2023-08-31T13:30:01;22.50;89.40
19803;DHT22;66074;50.764;6.090;2023-08-31T13:32:26;22.50;89.50
19803;DHT22;66074;50.764;6.090;2023-08-31T13:34:52;22.60;90.00
19803;DHT22;66074;50.764;6.090;2023-08-31T13:37:20;22.80;89.80
19803;DHT22;66074;50.764;6.090;2023-08-31T13:39:46;22.80;88.30
19803;DHT22;66074;50.764;6.090;2023-08-31T13:42:15;22.60;87.30
19803;DHT22;66074;50.764;6.090;2023-08-31T13:44:40;22.40;86.80
19803;DHT22;66074;50.764;6.090;2023-08-31T13:47:06;22.10;86.60
19803;DHT22;66074;50.764;6.090;2023-08-31T13:49:32;22.10;86.90
19803;DHT22;66074;50.764;6.090;2023-08-31T13:51:59;22.10;87.10
19803;DHT22;66074;50.764;6.090;2023-08-31T13:54:25;22.60;87.80
19803;DHT22;66074;50.764;6.090;2023-08-31T13:56:51;22.90;88.10
19803;DHT22;66074;50.764;6.090;2023-08-31T13:59:17;23.00;86.70
19803;DHT22;66074;50.764;6.090;2023-08-31T14:01:43;23.10;87.50
19803;DHT22;66074;50.764;6.090;2023-08-31T14:04:09;23.20;87.80
19803;DHT22;66074;50.764;6.090;2023-08-31T14:06:34;23.80;88.00
19803;DHT22;66074;50.764;6.090;2023-08-31T14:09:01;24.10;85.70
19803;DHT22;66074;50.764;6.090;2023-08-31T14:11:28;24.30;85.30
19803;DHT22;66074;50.764;6.090;2023-08-31T14:14:05;24.10;85.00
19803;DHT22;66074;50.764;6.090;2023-08-31T14:16:32;23.70;84.70
19803;DHT22;66074;50.764;6.090;2023-08-31T14:18:58;23.30;84.50
19803;DHT22;66074;50.764;6.090;2023-08-31T14:21:23;23.10;85.30
19803;DHT22;66074;50.764;6.090;2023-08-31T14:23:49;22.80;85.60
19803;DHT22;66074;50.764;6.090;2023-08-31T14:26:15;22.60;84.00
19803;DHT22;66074;50.764;6.090;2023-08-31T14:28:40;22.50;84.00
19803;DHT22;66074;50.764;6.090;2023-08-31T14:31:08;22.40;84.50
19803;DHT22;66074;50.764;6.090;2023-08-31T14:33:33;22.40;84.60
19803;DHT22;66074;50.764;6.090;2023-08-31T14:35:59;22.40;84.30
19803;DHT22;66074;50.764;6.090;2023-08-31T14:38:25;22.40;84.30
19803;DHT22;66074;50.764;6.090;2023-08-31T14:40:51;22.30;83.80
19803;DHT22;66074;50.764;6.090;2023-08-31T14:43:17;22.30;83.90
19803;DHT22;66074;50.764;6.090;2023-08-31T14:45:43;22.40;84.10
19803;DHT22;66074;50.764;6.090;2023-08-31T14:48:08;22.50;83.10
19803;DHT22;66074;50.764;6.090;2023-08-31T14:50:34;22.60;83.10
19803;DHT22;66074;50.764;6.090;2023-08-31T14:52:59;22.60;82.80
19803;DHT22;66074;50.764;6.090;2023-08-31T14:55:25;22.50;82.90
19803;DHT22;66074;50.764;6.090;2023-08-31T14:57:51;22.40;81.90
19803;DHT22;66074;50.764;6.090;2023-08-31T15:00:17;22.40;82.80
19803;DHT22;66074;50.764;6.090;2023-08-31T15:02:44;22.50;82.60
19803;DHT22;66074;50.764;6.090;2023-08-31T15:05:09;22.50;82.60
19803;DHT22;66074;50.764;6.090;2023-08-31T15:07:35;22.60;82.80
19803;DHT22;66074;50.764;6.090;2023-08-31T15:10:00;22.60;82.50
19803;DHT22;66074;50.764;6.090;2023-08-31T15:12:27;22.50;82.40
19803;DHT22;66074;50.764;6.090;2023-08-31T15:14:52;22.30;82.80
19803;DHT22;66074;50.764;6.090;2023-08-31T15:17:18;22.30;82.40
19803;DHT22;66074;50.764;6.090;2023-08-31T15:19:43;22.20;82.40
19803;DHT22;66074;50.764;6.090;2023-08-31T15:22:09;22.10;82.40
19803;DHT22;66074;50.764;6.090;2023-08-31T15:24:35;22.00;82.00
19803;DHT22;66074;50.764;6.090;2023-08-31T15:27:02;21.90;82.20
19803;DHT22;66074;50.764;6.090;2023-08-31T15:29:28;21.80;82.30
19803;DHT22;66074;50.764;6.090;2023-08-31T15:31:55;21.70;82.30
19803;DHT22;66074;50.764;6.090;2023-08-31T15:34:21;21.60;82.70
19803;DHT22;66074;50.764;6.090;2023-08-31T15:36:47;21.60;82.90
19803;DHT22;66074;50.764;6.090;2023-08-31T15:39:13;21.50;82.90
19803;DHT22;66074;50.764;6.090;2023-08-31T15:41:39;21.50;83.30
19803;DHT22;66074;50.764;6.090;2023-08-31T15:44:04;21.50;83.10
19803;DHT22;66074;50.764;6.090;2023-08-31T15:46:30;21.40;83.20
19803;DHT22;66074;50.764;6.090;2023-08-31T15:48:56;21.40;83.50
19803;DHT22;66074;50.764;6.090;2023-08-31T15:51:21;21.30;83.40